Ranchos De Taos, NM (87557)

6:49 AM MDT on October 24, 2014 (GMT -0600)
Talpa | Change Station
CLOSE
Current Station
Personal Weather Station
Location: Talpa, NM
Elevation: 7277 ft
Nearby Weather Stations

Elev 7277 ft 36.34 °N, 105.59 °W | Updated 4 minutes ago

Clear
Clear
45.2 °F
Feels Like 41 °F
N
7.0
Wind Variable Wind from ESE
Gusts 11.0 mph

Today
High -- | Low -- °F
--% Chance of Precip.
Yesterday
High -- | Low -- °F
Precip. -- in
7:17 AM 6:14 PM
New Moon, 0% visible
Pressure 30.38 in
Visibility 10.0 miles
Clouds Clear
Windchill 41 °F
Dew Point 31 °F
Humidity 58%
Rainfall 0.00 in
Snow Depth 0 in
UV 0 out of 12
Pollen 3.00 out of 12
Air Quality Not available.
Flu Activity Sporadic
METAR KSKX 241235Z AUTO 36006KT 10SM CLR 00/M04 A3038 RMK AO1

More Conditions Fewer Conditions

Pressure 30.38 in
Visibility 10.0 miles
Clouds Clear
Windchill 41 °F
Dew Point 31 °F
Humidity 58%
Rainfall 0.00 in
Snow Depth 0 in
UV 0 out of 12
Pollen 3.00 out of 12
Air Quality Not available.
Flu Activity Sporadic
METAR KSKX 241235Z AUTO 36006KT 10SM CLR 00/M04 A3038 RMK AO1

More Conditions Fewer Conditions

10-Day Weather Forecast

Almanac

Astronomy

Oct. 24, 2014 Rise Set
Actual Time 7:17 AM MDT 6:14 PM MDT
Civil Twilight 6:51 AM MDT 6:41 PM MDT
Nautical Twilight 6:21 AM MDT 7:11 PM MDT
Astronomical Twilight 5:51 AM MDT 7:41 PM MDT
Moon 7:58 AM MDT 6:58 PM MDT
Length of Visible Light 11h 49m
Length of Day
10h 57m
Tomorrow will be 2m 7s shorter.
New Moon, 0% of the Moon is Illuminated
Today
New Moon
Oct 30
First Quarter
Nov 6
Full
Nov 14
Last Quarter
Nov 22
New

Today's Extremes

State Highs State Lows

Community

WunderPhotos

Upload Photos

1,764,544 photos uploaded!

Nearby

Snow Depth

Station Depth Elevation
Gallegos Peak 0 in 9800 ft
Tolby 0 in 10180 ft
Red River Pass #2 0 in 9850 ft
Elk Cabin 1 in 8210 ft
Wesner Springs 3 in 11120 ft

Earthquake Activity

City Distance Mag. Time & Date
No recent earthquake activity has been reported nearby.
Minimum magnitude displayed is 2.5.

Coastal Water Temperatures

Place Temperature
No Stations Reporting

Nearby Weather Stations